sensor_id;sensor_type;location;lat;lon;timestamp;P1;durP1;ratioP1;P2;durP2;ratioP2
39074;SDS011;24826;52.070;20.970;2022-10-16T00:01:07;18.85;;;13.40;;
39074;SDS011;24826;52.070;20.970;2022-10-16T00:03:55;20.55;;;14.25;;
39074;SDS011;24826;52.070;20.970;2022-10-16T00:06:41;18.77;;;13.18;;
39074;SDS011;24826;52.070;20.970;2022-10-16T00:09:25;20.40;;;13.60;;
39074;SDS011;24826;52.070;20.970;2022-10-16T00:12:09;21.85;;;13.98;;
39074;SDS011;24826;52.070;20.970;2022-10-16T00:14:54;24.67;;;14.02;;
39074;SDS011;24826;52.070;20.970;2022-10-16T00:17:38;20.58;;;13.77;;
39074;SDS011;24826;52.070;20.970;2022-10-16T00:20:23;20.60;;;13.68;;
39074;SDS011;24826;52.070;20.970;2022-10-16T00:23:07;22.20;;;13.48;;
39074;SDS011;24826;52.070;20.970;2022-10-16T00:25:55;20.33;;;13.85;;
39074;SDS011;24826;52.070;20.970;2022-10-16T00:28:41;21.40;;;14.30;;
39074;SDS011;24826;52.070;20.970;2022-10-16T00:31:26;24.25;;;15.30;;
39074;SDS011;24826;52.070;20.970;2022-10-16T00:34:10;21.23;;;14.82;;
39074;SDS011;24826;52.070;20.970;2022-10-16T00:36:54;21.38;;;14.82;;
39074;SDS011;24826;52.070;20.970;2022-10-16T00:39:39;23.85;;;15.27;;
39074;SDS011;24826;52.070;20.970;2022-10-16T00:42:23;21.15;;;14.23;;
39074;SDS011;24826;52.070;20.970;2022-10-16T00:45:08;23.50;;;15.75;;
39074;SDS011;24826;52.070;20.970;2022-10-16T00:47:53;26.80;;;15.65;;
39074;SDS011;24826;52.070;20.970;2022-10-16T00:50:39;23.75;;;15.73;;
39074;SDS011;24826;52.070;20.970;2022-10-16T00:53:27;24.30;;;16.17;;
39074;SDS011;24826;52.070;20.970;2022-10-16T00:56:11;23.15;;;16.23;;
39074;SDS011;24826;52.070;20.970;2022-10-16T00:58:56;24.17;;;16.52;;
39074;SDS011;24826;52.070;20.970;2022-10-16T01:01:42;26.35;;;15.30;;
39074;SDS011;24826;52.070;20.970;2022-10-16T01:04:26;25.52;;;15.80;;
39074;SDS011;24826;52.070;20.970;2022-10-16T01:07:21;23.50;;;16.70;;
39074;SDS011;24826;52.070;20.970;2022-10-16T01:13:21;22.25;;;16.55;;
39074;SDS011;24826;52.070;20.970;2022-10-16T01:16:24;24.45;;;16.35;;
39074;SDS011;24826;52.070;20.970;2022-10-16T01:22:33;23.45;;;15.82;;
39074;SDS011;24826;52.070;20.970;2022-10-16T01:25:25;24.80;;;16.00;;
39074;SDS011;24826;52.070;20.970;2022-10-16T01:28:22;22.50;;;14.93;;
39074;SDS011;24826;52.070;20.970;2022-10-16T01:31:11;24.02;;;16.85;;
39074;SDS011;24826;52.070;20.970;2022-10-16T01:34:44;24.15;;;16.38;;
39074;SDS011;24826;52.070;20.970;2022-10-16T01:37:12;22.60;;;16.13;;
39074;SDS011;24826;52.070;20.970;2022-10-16T01:40:03;23.02;;;15.95;;
39074;SDS011;24826;52.070;20.970;2022-10-16T01:42:56;21.35;;;15.48;;
39074;SDS011;24826;52.070;20.970;2022-10-16T01:45:44;26.20;;;16.80;;
39074;SDS011;24826;52.070;20.970;2022-10-16T01:48:30;26.40;;;16.30;;
39074;SDS011;24826;52.070;20.970;2022-10-16T01:51:16;23.90;;;16.02;;
39074;SDS011;24826;52.070;20.970;2022-10-16T01:54:03;25.92;;;16.67;;
39074;SDS011;24826;52.070;20.970;2022-10-16T01:56:52;26.42;;;16.80;;
39074;SDS011;24826;52.070;20.970;2022-10-16T01:59:40;24.63;;;15.48;;
39074;SDS011;24826;52.070;20.970;2022-10-16T02:02:30;23.35;;;15.75;;
39074;SDS011;24826;52.070;20.970;2022-10-16T02:05:20;23.38;;;15.88;;
39074;SDS011;24826;52.070;20.970;2022-10-16T02:08:15;23.30;;;15.60;;
39074;SDS011;24826;52.070;20.970;2022-10-16T02:11:00;21.80;;;14.82;;
39074;SDS011;24826;52.070;20.970;2022-10-16T02:13:46;24.92;;;15.27;;
39074;SDS011;24826;52.070;20.970;2022-10-16T02:16:39;21.20;;;15.60;;
39074;SDS011;24826;52.070;20.970;2022-10-16T02:22:12;22.95;;;15.15;;
39074;SDS011;24826;52.070;20.970;2022-10-16T02:25:22;22.73;;;15.77;;
39074;SDS011;24826;52.070;20.970;2022-10-16T02:28:22;22.92;;;16.10;;
39074;SDS011;24826;52.070;20.970;2022-10-16T02:31:11;23.07;;;14.83;;
39074;SDS011;24826;52.070;20.970;2022-10-16T02:34:00;21.63;;;14.48;;
39074;SDS011;24826;52.070;20.970;2022-10-16T02:36:49;22.95;;;15.98;;
39074;SDS011;24826;52.070;20.970;2022-10-16T02:39:34;22.17;;;15.00;;
39074;SDS011;24826;52.070;20.970;2022-10-16T02:42:19;21.10;;;15.27;;
39074;SDS011;24826;52.070;20.970;2022-10-16T02:45:04;22.20;;;14.95;;
39074;SDS011;24826;52.070;20.970;2022-10-16T02:47:49;26.00;;;14.77;;
39074;SDS011;24826;52.070;20.970;2022-10-16T02:50:34;22.05;;;13.98;;
39074;SDS011;24826;52.070;20.970;2022-10-16T02:53:19;22.50;;;14.57;;
39074;SDS011;24826;52.070;20.970;2022-10-16T02:56:03;22.58;;;14.30;;
39074;SDS011;24826;52.070;20.970;2022-10-16T02:58:48;21.67;;;15.02;;
39074;SDS011;24826;52.070;20.970;2022-10-16T03:01:32;23.23;;;15.32;;
39074;SDS011;24826;52.070;20.970;2022-10-16T03:04:16;20.30;;;13.63;;
39074;SDS011;24826;52.070;20.970;2022-10-16T03:07:00;21.70;;;13.80;;
39074;SDS011;24826;52.070;20.970;2022-10-16T03:09:44;22.15;;;14.00;;
39074;SDS011;24826;52.070;20.970;2022-10-16T03:12:29;19.40;;;13.93;;
39074;SDS011;24826;52.070;20.970;2022-10-16T03:15:14;18.55;;;13.18;;
39074;SDS011;24826;52.070;20.970;2022-10-16T03:17:58;24.35;;;14.68;;
39074;SDS011;24826;52.070;20.970;2022-10-16T03:20:43;24.38;;;15.35;;
39074;SDS011;24826;52.070;20.970;2022-10-16T03:23:27;22.85;;;14.13;;
39074;SDS011;24826;52.070;20.970;2022-10-16T03:26:13;19.88;;;14.25;;
39074;SDS011;24826;52.070;20.970;2022-10-16T03:28:57;22.55;;;14.50;;
39074;SDS011;24826;52.070;20.970;2022-10-16T03:31:42;22.15;;;13.57;;
39074;SDS011;24826;52.070;20.970;2022-10-16T03:34:26;20.42;;;14.10;;
39074;SDS011;24826;52.070;20.970;2022-10-16T03:37:11;20.15;;;13.48;;
39074;SDS011;24826;52.070;20.970;2022-10-16T03:39:55;21.27;;;14.45;;
39074;SDS011;24826;52.070;20.970;2022-10-16T03:42:39;19.63;;;14.38;;
39074;SDS011;24826;52.070;20.970;2022-10-16T03:45:24;22.20;;;14.43;;
39074;SDS011;24826;52.070;20.970;2022-10-16T03:48:09;18.02;;;13.35;;
39074;SDS011;24826;52.070;20.970;2022-10-16T03:50:53;24.08;;;15.48;;
39074;SDS011;24826;52.070;20.970;2022-10-16T03:53:38;22.00;;;15.40;;
39074;SDS011;24826;52.070;20.970;2022-10-16T03:56:22;22.35;;;13.77;;
39074;SDS011;24826;52.070;20.970;2022-10-16T03:59:07;21.05;;;14.50;;
39074;SDS011;24826;52.070;20.970;2022-10-16T04:01:51;22.02;;;15.07;;
39074;SDS011;24826;52.070;20.970;2022-10-16T04:04:35;21.73;;;15.30;;
39074;SDS011;24826;52.070;20.970;2022-10-16T04:07:19;20.77;;;14.88;;
39074;SDS011;24826;52.070;20.970;2022-10-16T04:10:04;22.75;;;13.55;;
39074;SDS011;24826;52.070;20.970;2022-10-16T04:12:49;24.58;;;15.43;;
39074;SDS011;24826;52.070;20.970;2022-10-16T04:15:33;23.30;;;14.60;;
39074;SDS011;24826;52.070;20.970;2022-10-16T04:18:18;21.45;;;14.95;;
39074;SDS011;24826;52.070;20.970;2022-10-16T04:21:03;22.60;;;14.98;;
39074;SDS011;24826;52.070;20.970;2022-10-16T04:23:49;21.27;;;15.20;;
39074;SDS011;24826;52.070;20.970;2022-10-16T04:26:34;22.00;;;15.20;;
39074;SDS011;24826;52.070;20.970;2022-10-16T04:29:18;22.80;;;14.48;;
39074;SDS011;24826;52.070;20.970;2022-10-16T04:32:03;19.48;;;15.48;;
39074;SDS011;24826;52.070;20.970;2022-10-16T04:34:47;19.92;;;14.52;;
39074;SDS011;24826;52.070;20.970;2022-10-16T04:37:31;22.88;;;14.95;;
39074;SDS011;24826;52.070;20.970;2022-10-16T04:40:16;22.50;;;14.95;;
39074;SDS011;24826;52.070;20.970;2022-10-16T04:43:01;22.35;;;14.85;;
39074;SDS011;24826;52.070;20.970;2022-10-16T04:45:46;27.42;;;15.13;;
39074;SDS011;24826;52.070;20.970;2022-10-16T04:48:31;18.63;;;13.98;;
39074;SDS011;24826;52.070;20.970;2022-10-16T04:51:16;20.73;;;15.57;;
39074;SDS011;24826;52.070;20.970;2022-10-16T04:54:02;22.30;;;14.48;;
39074;SDS011;24826;52.070;20.970;2022-10-16T04:56:46;23.30;;;15.25;;
39074;SDS011;24826;52.070;20.970;2022-10-16T04:59:31;24.08;;;15.25;;
39074;SDS011;24826;52.070;20.970;2022-10-16T05:02:15;22.85;;;15.27;;
39074;SDS011;24826;52.070;20.970;2022-10-16T05:05:00;21.30;;;15.70;;
39074;SDS011;24826;52.070;20.970;2022-10-16T05:07:44;20.70;;;14.23;;
39074;SDS011;24826;52.070;20.970;2022-10-16T05:10:28;20.70;;;14.15;;
39074;SDS011;24826;52.070;20.970;2022-10-16T05:13:12;25.83;;;14.95;;
39074;SDS011;24826;52.070;20.970;2022-10-16T05:15:57;24.52;;;15.52;;
39074;SDS011;24826;52.070;20.970;2022-10-16T05:18:41;22.98;;;14.68;;
39074;SDS011;24826;52.070;20.970;2022-10-16T05:21:26;20.00;;;14.52;;
39074;SDS011;24826;52.070;20.970;2022-10-16T05:24:10;21.40;;;15.07;;
39074;SDS011;24826;52.070;20.970;2022-10-16T05:26:55;27.27;;;14.50;;
39074;SDS011;24826;52.070;20.970;2022-10-16T05:29:39;23.08;;;15.45;;
39074;SDS011;24826;52.070;20.970;2022-10-16T05:32:23;20.48;;;14.65;;
39074;SDS011;24826;52.070;20.970;2022-10-16T05:35:08;23.25;;;15.13;;
39074;SDS011;24826;52.070;20.970;2022-10-16T05:37:52;24.10;;;14.30;;
39074;SDS011;24826;52.070;20.970;2022-10-16T05:40:36;26.02;;;15.27;;
39074;SDS011;24826;52.070;20.970;2022-10-16T05:43:21;24.13;;;14.85;;
39074;SDS011;24826;52.070;20.970;2022-10-16T05:46:07;21.55;;;15.68;;
39074;SDS011;24826;52.070;20.970;2022-10-16T05:48:52;22.95;;;15.48;;
39074;SDS011;24826;52.070;20.970;2022-10-16T05:51:37;24.33;;;15.32;;
39074;SDS011;24826;52.070;20.970;2022-10-16T05:54:21;22.52;;;15.75;;
39074;SDS011;24826;52.070;20.970;2022-10-16T05:57:05;21.52;;;15.55;;
39074;SDS011;24826;52.070;20.970;2022-10-16T05:59:49;21.45;;;15.43;;
39074;SDS011;24826;52.070;20.970;2022-10-16T06:02:34;24.55;;;14.73;;
39074;SDS011;24826;52.070;20.970;2022-10-16T06:05:18;22.92;;;14.77;;
39074;SDS011;24826;52.070;20.970;2022-10-16T06:08:02;28.42;;;15.95;;
39074;SDS011;24826;52.070;20.970;2022-10-16T06:10:47;21.10;;;15.50;;
39074;SDS011;24826;52.070;20.970;2022-10-16T06:13:32;21.25;;;15.05;;
39074;SDS011;24826;52.070;20.970;2022-10-16T06:16:16;20.40;;;14.80;;
39074;SDS011;24826;52.070;20.970;2022-10-16T06:19:02;20.13;;;14.82;;
39074;SDS011;24826;52.070;20.970;2022-10-16T06:21:50;20.65;;;14.82;;
39074;SDS011;24826;52.070;20.970;2022-10-16T06:24:34;25.02;;;15.32;;
39074;SDS011;24826;52.070;20.970;2022-10-16T06:27:18;23.20;;;15.55;;
39074;SDS011;24826;52.070;20.970;2022-10-16T06:30:03;21.33;;;14.93;;
39074;SDS011;24826;52.070;20.970;2022-10-16T06:32:48;25.40;;;14.88;;
39074;SDS011;24826;52.070;20.970;2022-10-16T06:35:32;22.25;;;14.65;;
39074;SDS011;24826;52.070;20.970;2022-10-16T06:38:17;21.05;;;14.80;;
39074;SDS011;24826;52.070;20.970;2022-10-16T06:41:01;21.17;;;13.98;;
39074;SDS011;24826;52.070;20.970;2022-10-16T06:43:46;21.75;;;14.15;;
39074;SDS011;24826;52.070;20.970;2022-10-16T06:46:31;20.08;;;13.95;;
39074;SDS011;24826;52.070;20.970;2022-10-16T06:49:15;19.95;;;13.73;;
39074;SDS011;24826;52.070;20.970;2022-10-16T06:52:05;24.25;;;15.35;;
39074;SDS011;24826;52.070;20.970;2022-10-16T06:54:49;18.40;;;13.45;;
39074;SDS011;24826;52.070;20.970;2022-10-16T06:57:34;19.80;;;13.77;;
39074;SDS011;24826;52.070;20.970;2022-10-16T07:00:19;18.92;;;13.52;;
39074;SDS011;24826;52.070;20.970;2022-10-16T07:03:03;19.85;;;13.80;;
39074;SDS011;24826;52.070;20.970;2022-10-16T07:05:47;21.85;;;14.38;;
39074;SDS011;24826;52.070;20.970;2022-10-16T07:08:35;19.60;;;13.73;;
39074;SDS011;24826;52.070;20.970;2022-10-16T07:11:22;20.15;;;14.10;;
39074;SDS011;24826;52.070;20.970;2022-10-16T07:14:12;18.83;;;14.07;;
39074;SDS011;24826;52.070;20.970;2022-10-16T07:17:00;18.58;;;14.05;;
39074;SDS011;24826;52.070;20.970;2022-10-16T07:19:44;25.33;;;14.10;;
39074;SDS011;24826;52.070;20.970;2022-10-16T07:22:29;17.33;;;12.43;;
39074;SDS011;24826;52.070;20.970;2022-10-16T07:25:13;24.17;;;14.30;;
39074;SDS011;24826;52.070;20.970;2022-10-16T07:27:58;18.98;;;13.80;;
39074;SDS011;24826;52.070;20.970;2022-10-16T07:30:42;20.17;;;13.80;;
39074;SDS011;24826;52.070;20.970;2022-10-16T07:33:26;21.05;;;12.93;;
39074;SDS011;24826;52.070;20.970;2022-10-16T07:36:11;18.70;;;13.05;;
39074;SDS011;24826;52.070;20.970;2022-10-16T07:38:56;18.77;;;12.85;;
39074;SDS011;24826;52.070;20.970;2022-10-16T07:41:41;20.33;;;12.88;;
39074;SDS011;24826;52.070;20.970;2022-10-16T07:44:25;20.40;;;13.88;;
39074;SDS011;24826;52.070;20.970;2022-10-16T07:47:09;18.65;;;13.73;;
39074;SDS011;24826;52.070;20.970;2022-10-16T07:49:54;20.85;;;14.25;;
39074;SDS011;24826;52.070;20.970;2022-10-16T07:52:38;18.85;;;13.35;;
39074;SDS011;24826;52.070;20.970;2022-10-16T07:55:22;21.52;;;13.98;;
39074;SDS011;24826;52.070;20.970;2022-10-16T07:58:07;19.85;;;13.95;;
39074;SDS011;24826;52.070;20.970;2022-10-16T08:00:51;23.23;;;15.18;;
39074;SDS011;24826;52.070;20.970;2022-10-16T08:03:36;19.50;;;13.77;;
39074;SDS011;24826;52.070;20.970;2022-10-16T08:06:21;19.10;;;13.10;;
39074;SDS011;24826;52.070;20.970;2022-10-16T08:09:06;18.73;;;13.10;;
39074;SDS011;24826;52.070;20.970;2022-10-16T08:11:51;22.35;;;13.35;;
39074;SDS011;24826;52.070;20.970;2022-10-16T08:14:36;20.13;;;13.48;;
39074;SDS011;24826;52.070;20.970;2022-10-16T08:17:21;19.88;;;12.77;;
39074;SDS011;24826;52.070;20.970;2022-10-16T08:20:05;20.88;;;13.38;;
39074;SDS011;24826;52.070;20.970;2022-10-16T08:22:50;18.55;;;12.68;;
39074;SDS011;24826;52.070;20.970;2022-10-16T08:25:35;18.10;;;12.45;;
39074;SDS011;24826;52.070;20.970;2022-10-16T08:28:23;16.95;;;12.38;;
39074;SDS011;24826;52.070;20.970;2022-10-16T08:31:09;17.45;;;12.55;;
39074;SDS011;24826;52.070;20.970;2022-10-16T08:33:58;20.75;;;13.55;;
39074;SDS011;24826;52.070;20.970;2022-10-16T08:36:42;17.92;;;12.63;;
39074;SDS011;24826;52.070;20.970;2022-10-16T08:39:26;16.63;;;12.23;;
39074;SDS011;24826;52.070;20.970;2022-10-16T08:48:18;16.38;;;12.00;;
39074;SDS011;24826;52.070;20.970;2022-10-16T08:51:11;19.15;;;12.38;;
39074;SDS011;24826;52.070;20.970;2022-10-16T08:54:02;15.45;;;11.60;;
39074;SDS011;24826;52.070;20.970;2022-10-16T08:56:47;17.00;;;12.30;;
39074;SDS011;24826;52.070;20.970;2022-10-16T08:59:32;18.38;;;11.70;;
39074;SDS011;24826;52.070;20.970;2022-10-16T09:02:24;19.55;;;12.80;;
39074;SDS011;24826;52.070;20.970;2022-10-16T09:05:18;17.17;;;11.60;;
39074;SDS011;24826;52.070;20.970;2022-10-16T09:11:07;17.30;;;12.63;;
39074;SDS011;24826;52.070;20.970;2022-10-16T09:17:30;16.00;;;11.40;;
39074;SDS011;24826;52.070;20.970;2022-10-16T09:20:31;16.38;;;11.25;;
39074;SDS011;24826;52.070;20.970;2022-10-16T09:23:34;15.13;;;11.48;;
39074;SDS011;24826;52.070;20.970;2022-10-16T09:26:22;18.38;;;12.55;;
39074;SDS011;24826;52.070;20.970;2022-10-16T09:29:08;16.85;;;11.93;;
39074;SDS011;24826;52.070;20.970;2022-10-16T09:31:58;16.90;;;11.68;;
39074;SDS011;24826;52.070;20.970;2022-10-16T09:34:56;18.73;;;12.50;;
39074;SDS011;24826;52.070;20.970;2022-10-16T09:37:42;16.38;;;12.20;;
39074;SDS011;24826;52.070;20.970;2022-10-16T09:40:31;18.75;;;13.02;;
39074;SDS011;24826;52.070;20.970;2022-10-16T09:43:27;14.45;;;11.25;;
39074;SDS011;24826;52.070;20.970;2022-10-16T09:46:28;15.90;;;12.10;;
39074;SDS011;24826;52.070;20.970;2022-10-16T09:49:23;20.35;;;11.65;;
39074;SDS011;24826;52.070;20.970;2022-10-16T09:52:12;16.38;;;11.98;;
39074;SDS011;24826;52.070;20.970;2022-10-16T09:55:08;16.75;;;12.88;;
39074;SDS011;24826;52.070;20.970;2022-10-16T09:57:57;17.05;;;11.50;;
39074;SDS011;24826;52.070;20.970;2022-10-16T10:00:42;14.95;;;11.05;;
39074;SDS011;24826;52.070;20.970;2022-10-16T10:03:38;14.18;;;11.52;;
39074;SDS011;24826;52.070;20.970;2022-10-16T10:06:28;14.93;;;10.80;;
39074;SDS011;24826;52.070;20.970;2022-10-16T10:12:17;16.10;;;12.10;;
39074;SDS011;24826;52.070;20.970;2022-10-16T10:15:12;19.30;;;12.30;;
39074;SDS011;24826;52.070;20.970;2022-10-16T10:18:15;15.52;;;10.80;;
39074;SDS011;24826;52.070;20.970;2022-10-16T10:21:12;14.60;;;11.68;;
39074;SDS011;24826;52.070;20.970;2022-10-16T10:23:59;15.95;;;11.50;;
39074;SDS011;24826;52.070;20.970;2022-10-16T10:26:55;15.10;;;10.98;;
39074;SDS011;24826;52.070;20.970;2022-10-16T10:33:24;14.98;;;10.98;;
39074;SDS011;24826;52.070;20.970;2022-10-16T10:40:13;17.35;;;10.93;;
39074;SDS011;24826;52.070;20.970;2022-10-16T10:42:45;19.65;;;11.75;;
39074;SDS011;24826;52.070;20.970;2022-10-16T10:45:42;15.57;;;10.88;;
39074;SDS011;24826;52.070;20.970;2022-10-16T10:54:26;15.73;;;10.98;;
39074;SDS011;24826;52.070;20.970;2022-10-16T10:57:25;13.90;;;10.23;;
39074;SDS011;24826;52.070;20.970;2022-10-16T11:06:36;13.80;;;10.85;;
39074;SDS011;24826;52.070;20.970;2022-10-16T11:09:27;14.93;;;11.10;;
39074;SDS011;24826;52.070;20.970;2022-10-16T11:12:21;14.38;;;10.95;;
39074;SDS011;24826;52.070;20.970;2022-10-16T11:15:14;14.02;;;10.40;;
39074;SDS011;24826;52.070;20.970;2022-10-16T11:18:06;17.00;;;11.60;;
39074;SDS011;24826;52.070;20.970;2022-10-16T11:21:03;17.20;;;10.98;;
39074;SDS011;24826;52.070;20.970;2022-10-16T11:23:53;16.92;;;11.35;;
39074;SDS011;24826;52.070;20.970;2022-10-16T11:26:44;14.93;;;10.60;;
39074;SDS011;24826;52.070;20.970;2022-10-16T11:29:31;14.85;;;10.98;;
39074;SDS011;24826;52.070;20.970;2022-10-16T11:32:39;18.52;;;10.70;;
39074;SDS011;24826;52.070;20.970;2022-10-16T11:35:43;15.05;;;10.30;;
39074;SDS011;24826;52.070;20.970;2022-10-16T11:47:58;14.23;;;10.60;;
39074;SDS011;24826;52.070;20.970;2022-10-16T11:50:56;14.35;;;9.95;;
39074;SDS011;24826;52.070;20.970;2022-10-16T11:56:46;16.92;;;10.48;;
39074;SDS011;24826;52.070;20.970;2022-10-16T11:59:42;15.93;;;11.30;;
39074;SDS011;24826;52.070;20.970;2022-10-16T12:02:32;15.48;;;10.98;;
39074;SDS011;24826;52.070;20.970;2022-10-16T12:05:20;12.90;;;10.07;;
39074;SDS011;24826;52.070;20.970;2022-10-16T12:08:29;14.32;;;10.55;;
39074;SDS011;24826;52.070;20.970;2022-10-16T12:14:33;15.82;;;10.52;;
39074;SDS011;24826;52.070;20.970;2022-10-16T12:23:01;19.23;;;10.15;;
39074;SDS011;24826;52.070;20.970;2022-10-16T12:25:53;18.42;;;10.63;;
39074;SDS011;24826;52.070;20.970;2022-10-16T12:28:39;14.90;;;10.13;;
39074;SDS011;24826;52.070;20.970;2022-10-16T12:31:24;14.88;;;10.45;;
39074;SDS011;24826;52.070;20.970;2022-10-16T12:34:27;14.07;;;10.63;;
39074;SDS011;24826;52.070;20.970;2022-10-16T12:37:34;15.55;;;9.85;;
39074;SDS011;24826;52.070;20.970;2022-10-16T12:43:12;14.50;;;9.60;;
39074;SDS011;24826;52.070;20.970;2022-10-16T12:49:06;13.73;;;9.82;;
39074;SDS011;24826;52.070;20.970;2022-10-16T12:52:22;14.80;;;10.05;;
39074;SDS011;24826;52.070;20.970;2022-10-16T12:55:22;17.48;;;10.48;;
39074;SDS011;24826;52.070;20.970;2022-10-16T12:58:17;13.13;;;9.43;;
39074;SDS011;24826;52.070;20.970;2022-10-16T13:01:07;12.73;;;9.48;;
39074;SDS011;24826;52.070;20.970;2022-10-16T13:07:20;16.30;;;9.85;;
39074;SDS011;24826;52.070;20.970;2022-10-16T13:10:15;16.30;;;10.43;;
39074;SDS011;24826;52.070;20.970;2022-10-16T13:13:24;15.05;;;9.82;;
39074;SDS011;24826;52.070;20.970;2022-10-16T13:16:34;13.27;;;9.77;;
39074;SDS011;24826;52.070;20.970;2022-10-16T13:28:28;12.02;;;9.20;;
39074;SDS011;24826;52.070;20.970;2022-10-16T13:31:17;15.30;;;9.30;;
39074;SDS011;24826;52.070;20.970;2022-10-16T13:34:11;15.30;;;9.63;;
39074;SDS011;24826;52.070;20.970;2022-10-16T13:37:00;12.15;;;9.48;;
39074;SDS011;24826;52.070;20.970;2022-10-16T13:39:45;14.02;;;8.93;;
39074;SDS011;24826;52.070;20.970;2022-10-16T13:42:30;11.57;;;8.40;;
39074;SDS011;24826;52.070;20.970;2022-10-16T13:45:22;13.00;;;9.02;;
39074;SDS011;24826;52.070;20.970;2022-10-16T13:48:09;13.82;;;9.70;;
39074;SDS011;24826;52.070;20.970;2022-10-16T13:51:03;10.65;;;8.13;;
39074;SDS011;24826;52.070;20.970;2022-10-16T13:53:49;12.55;;;9.05;;
39074;SDS011;24826;52.070;20.970;2022-10-16T13:56:34;11.60;;;8.15;;
39074;SDS011;24826;52.070;20.970;2022-10-16T13:59:32;11.35;;;8.90;;
39074;SDS011;24826;52.070;20.970;2022-10-16T14:05:10;13.10;;;9.02;;
39074;SDS011;24826;52.070;20.970;2022-10-16T14:07:55;16.23;;;9.45;;
39074;SDS011;24826;52.070;20.970;2022-10-16T14:10:40;18.05;;;10.35;;
39074;SDS011;24826;52.070;20.970;2022-10-16T14:13:29;12.00;;;8.95;;
39074;SDS011;24826;52.070;20.970;2022-10-16T14:16:18;17.05;;;10.07;;
39074;SDS011;24826;52.070;20.970;2022-10-16T14:21:51;13.38;;;9.35;;
39074;SDS011;24826;52.070;20.970;2022-10-16T14:24:36;13.15;;;10.00;;
39074;SDS011;24826;52.070;20.970;2022-10-16T14:27:41;13.57;;;9.38;;
39074;SDS011;24826;52.070;20.970;2022-10-16T14:30:25;14.05;;;9.88;;
39074;SDS011;24826;52.070;20.970;2022-10-16T14:33:20;13.70;;;9.85;;
39074;SDS011;24826;52.070;20.970;2022-10-16T14:36:17;11.73;;;9.18;;
39074;SDS011;24826;52.070;20.970;2022-10-16T14:39:04;12.32;;;9.30;;
39074;SDS011;24826;52.070;20.970;2022-10-16T14:41:57;15.07;;;9.20;;
39074;SDS011;24826;52.070;20.970;2022-10-16T14:44:42;13.73;;;10.25;;
39074;SDS011;24826;52.070;20.970;2022-10-16T14:47:27;20.50;;;10.27;;
39074;SDS011;24826;52.070;20.970;2022-10-16T14:50:12;15.10;;;9.18;;
39074;SDS011;24826;52.070;20.970;2022-10-16T14:52:57;12.05;;;9.82;;
39074;SDS011;24826;52.070;20.970;2022-10-16T14:55:42;12.15;;;9.75;;
39074;SDS011;24826;52.070;20.970;2022-10-16T14:58:27;14.93;;;9.85;;
39074;SDS011;24826;52.070;20.970;2022-10-16T15:01:12;14.73;;;10.40;;
39074;SDS011;24826;52.070;20.970;2022-10-16T15:03:56;14.02;;;9.88;;
39074;SDS011;24826;52.070;20.970;2022-10-16T15:06:41;14.27;;;10.55;;
39074;SDS011;24826;52.070;20.970;2022-10-16T15:09:25;15.68;;;10.93;;
39074;SDS011;24826;52.070;20.970;2022-10-16T15:12:10;15.07;;;10.65;;
39074;SDS011;24826;52.070;20.970;2022-10-16T15:14:54;14.45;;;10.85;;
39074;SDS011;24826;52.070;20.970;2022-10-16T15:17:38;19.55;;;11.18;;
39074;SDS011;24826;52.070;20.970;2022-10-16T15:20:23;16.35;;;11.13;;
39074;SDS011;24826;52.070;20.970;2022-10-16T15:23:12;15.25;;;10.73;;
39074;SDS011;24826;52.070;20.970;2022-10-16T15:25:59;16.85;;;11.18;;
39074;SDS011;24826;52.070;20.970;2022-10-16T15:28:43;18.25;;;12.70;;
39074;SDS011;24826;52.070;20.970;2022-10-16T15:31:31;18.52;;;11.65;;
39074;SDS011;24826;52.070;20.970;2022-10-16T15:34:16;17.90;;;11.75;;
39074;SDS011;24826;52.070;20.970;2022-10-16T15:37:03;15.45;;;11.75;;
39074;SDS011;24826;52.070;20.970;2022-10-16T15:39:49;15.05;;;11.48;;
39074;SDS011;24826;52.070;20.970;2022-10-16T15:42:34;18.92;;;12.60;;
39074;SDS011;24826;52.070;20.970;2022-10-16T15:45:18;15.93;;;11.57;;
39074;SDS011;24826;52.070;20.970;2022-10-16T15:48:04;17.77;;;12.30;;
39074;SDS011;24826;52.070;20.970;2022-10-16T15:50:48;17.20;;;11.50;;
39074;SDS011;24826;52.070;20.970;2022-10-16T15:53:33;17.38;;;11.75;;
39074;SDS011;24826;52.070;20.970;2022-10-16T15:56:18;15.85;;;11.55;;
39074;SDS011;24826;52.070;20.970;2022-10-16T15:59:03;16.42;;;13.02;;
39074;SDS011;24826;52.070;20.970;2022-10-16T16:01:48;15.52;;;12.18;;
39074;SDS011;24826;52.070;20.970;2022-10-16T16:04:32;18.58;;;12.50;;
39074;SDS011;24826;52.070;20.970;2022-10-16T16:07:17;17.08;;;12.20;;
39074;SDS011;24826;52.070;20.970;2022-10-16T16:10:01;18.95;;;12.77;;
39074;SDS011;24826;52.070;20.970;2022-10-16T16:12:47;18.35;;;12.27;;
39074;SDS011;24826;52.070;20.970;2022-10-16T16:15:38;17.67;;;12.57;;
39074;SDS011;24826;52.070;20.970;2022-10-16T16:18:24;19.95;;;13.07;;
39074;SDS011;24826;52.070;20.970;2022-10-16T16:21:12;18.45;;;12.68;;
39074;SDS011;24826;52.070;20.970;2022-10-16T16:23:56;18.63;;;13.48;;
39074;SDS011;24826;52.070;20.970;2022-10-16T16:26:40;17.08;;;12.85;;
39074;SDS011;24826;52.070;20.970;2022-10-16T16:29:27;19.30;;;12.98;;
39074;SDS011;24826;52.070;20.970;2022-10-16T16:32:11;18.88;;;13.32;;
39074;SDS011;24826;52.070;20.970;2022-10-16T16:34:55;18.67;;;13.00;;
39074;SDS011;24826;52.070;20.970;2022-10-16T16:37:40;19.60;;;14.00;;
39074;SDS011;24826;52.070;20.970;2022-10-16T16:40:24;18.33;;;12.63;;
39074;SDS011;24826;52.070;20.970;2022-10-16T16:43:08;19.77;;;13.75;;
39074;SDS011;24826;52.070;20.970;2022-10-16T16:45:53;19.45;;;14.32;;
39074;SDS011;24826;52.070;20.970;2022-10-16T16:48:38;19.98;;;14.57;;
39074;SDS011;24826;52.070;20.970;2022-10-16T16:51:22;22.10;;;14.43;;
39074;SDS011;24826;52.070;20.970;2022-10-16T16:54:07;26.08;;;14.68;;
39074;SDS011;24826;52.070;20.970;2022-10-16T16:56:53;21.23;;;14.90;;
39074;SDS011;24826;52.070;20.970;2022-10-16T16:59:37;25.58;;;15.73;;
39074;SDS011;24826;52.070;20.970;2022-10-16T17:02:22;22.35;;;15.55;;
39074;SDS011;24826;52.070;20.970;2022-10-16T17:05:07;23.73;;;15.98;;
39074;SDS011;24826;52.070;20.970;2022-10-16T17:07:52;23.75;;;16.02;;
39074;SDS011;24826;52.070;20.970;2022-10-16T17:10:42;23.08;;;17.05;;
39074;SDS011;24826;52.070;20.970;2022-10-16T17:13:28;23.63;;;16.63;;
39074;SDS011;24826;52.070;20.970;2022-10-16T17:16:15;28.38;;;17.35;;
39074;SDS011;24826;52.070;20.970;2022-10-16T17:19:00;24.55;;;16.85;;
39074;SDS011;24826;52.070;20.970;2022-10-16T17:21:48;25.90;;;17.55;;
39074;SDS011;24826;52.070;20.970;2022-10-16T17:24:35;26.58;;;17.35;;
39074;SDS011;24826;52.070;20.970;2022-10-16T17:27:20;30.55;;;17.67;;
39074;SDS011;24826;52.070;20.970;2022-10-16T17:30:05;25.23;;;16.63;;
39074;SDS011;24826;52.070;20.970;2022-10-16T17:32:50;22.88;;;16.27;;
39074;SDS011;24826;52.070;20.970;2022-10-16T17:35:44;24.20;;;16.48;;
39074;SDS011;24826;52.070;20.970;2022-10-16T17:38:30;27.23;;;17.05;;